createdAt,value
2018-08-28T00:02:30.031Z,101172.00
2018-08-28T00:07:34.089Z,101177.00
2018-08-28T00:12:37.933Z,101177.00
2018-08-28T00:17:42.058Z,101175.00
2018-08-28T00:22:46.164Z,101184.00
2018-08-28T00:27:50.230Z,101181.00
2018-08-28T00:32:54.356Z,101186.00
2018-08-28T00:37:58.410Z,101194.00
2018-08-28T00:43:02.570Z,101196.00
2018-08-28T00:48:06.622Z,101192.00
2018-08-28T00:53:10.854Z,101197.00
2018-08-28T00:58:14.679Z,101203.00
2018-08-28T01:03:18.833Z,101205.00
2018-08-28T01:08:22.644Z,101209.00
2018-08-28T01:13:26.769Z,101208.00
2018-08-28T01:18:30.854Z,101212.00
2018-08-28T01:23:34.704Z,101213.00
2018-08-28T01:28:38.733Z,101217.00
2018-08-28T01:33:42.536Z,101215.00
2018-08-28T01:38:46.577Z,101216.00
2018-08-28T01:43:50.721Z,101212.00
2018-08-28T01:48:54.573Z,101209.00
2018-08-28T01:53:58.617Z,101205.00
2018-08-28T01:59:02.658Z,101210.00
2018-08-28T02:04:06.457Z,101211.00
2018-08-28T02:09:10.722Z,101215.00
2018-08-28T02:14:14.758Z,101220.00
2018-08-28T02:19:18.857Z,101218.00
2018-08-28T02:24:22.958Z,101219.00
2018-08-28T02:29:26.769Z,101217.00
2018-08-28T02:34:30.892Z,101220.00
2018-08-28T02:39:34.933Z,101221.00
2018-08-28T02:44:39.322Z,101227.00
2018-08-28T02:49:43.125Z,101228.00
2018-08-28T02:54:47.158Z,101231.00
2018-08-28T02:59:51.268Z,101235.00
2018-08-28T03:04:55.326Z,101236.00
2018-08-28T03:09:59.368Z,101238.00
2018-08-28T03:15:03.448Z,101241.00
2018-08-28T03:20:07.345Z,101238.00
2018-08-28T03:25:11.176Z,101238.00
2018-08-28T03:30:15.242Z,101238.00
2018-08-28T03:35:19.319Z,101243.00
2018-08-28T03:40:23.385Z,101249.00
2018-08-28T03:45:27.454Z,101253.00
2018-08-28T03:50:31.522Z,101258.00
2018-08-28T03:55:35.722Z,101265.00
2018-08-28T04:00:39.662Z,101269.00
2018-08-28T04:05:43.739Z,101270.00
2018-08-28T04:10:47.851Z,101270.00
2018-08-28T04:15:51.918Z,101261.00
2018-08-28T04:20:56.085Z,101267.00
2018-08-28T04:26:00.139Z,101268.00
2018-08-28T04:31:04.202Z,101267.00
2018-08-28T04:36:08.327Z,101269.00
2018-08-28T04:41:12.547Z,101277.00
2018-08-28T04:46:16.597Z,101275.00
2018-08-28T04:51:20.650Z,101278.00
2018-08-28T04:56:24.720Z,101283.00
2018-08-28T05:01:28.770Z,101287.00
2018-08-28T05:06:32.610Z,101290.00
2018-08-28T05:11:36.753Z,101291.00
2018-08-28T05:16:40.831Z,101289.00
2018-08-28T05:21:44.927Z,101290.00
2018-08-28T05:26:48.728Z,101293.00
2018-08-28T05:31:52.814Z,101296.00
2018-08-28T05:36:56.923Z,101298.00
2018-08-28T05:42:00.953Z,101303.00
2018-08-28T05:47:05.213Z,101316.00
2018-08-28T05:52:09.286Z,101314.00
2018-08-28T05:57:13.341Z,101317.00
2018-08-28T06:02:17.167Z,101328.00
2018-08-28T06:07:20.970Z,101332.00
2018-08-28T06:12:25.029Z,101333.00
2018-08-28T06:17:29.077Z,101335.00
2018-08-28T06:22:33.199Z,101340.00
2018-08-28T06:27:37.265Z,101346.00
2018-08-28T06:32:41.350Z,101346.00
2018-08-28T06:37:45.421Z,101354.00
2018-08-28T06:42:49.497Z,101350.00
2018-08-28T06:47:53.541Z,101353.00
2018-08-28T06:52:57.466Z,101356.00
2018-08-28T06:58:01.522Z,101356.00
2018-08-28T07:03:05.576Z,101357.00
2018-08-28T07:08:09.419Z,101362.00
2018-08-28T07:13:13.245Z,101362.00
2018-08-28T07:18:17.321Z,101354.00
2018-08-28T07:23:21.373Z,101359.00
2018-08-28T07:28:26.438Z,101357.00
2018-08-28T07:33:30.499Z,101356.00
2018-08-28T07:38:34.551Z,101363.00
2018-08-28T07:43:38.602Z,101368.00
2018-08-28T07:48:42.438Z,101372.00
2018-08-28T07:53:46.281Z,101366.00
2018-08-28T07:58:50.091Z,101369.00
2018-08-28T08:03:54.216Z,101379.00
2018-08-28T08:08:58.028Z,101380.00
2018-08-28T08:14:01.851Z,101385.00
2018-08-28T08:19:06.393Z,101391.00
2018-08-28T08:24:11.402Z,101393.00
2018-08-28T08:29:15.455Z,101398.00
2018-08-28T08:34:19.569Z,101390.00
2018-08-28T08:39:23.393Z,101397.00
2018-08-28T08:44:27.199Z,101390.00
2018-08-28T08:49:31.269Z,101381.00
2018-08-28T08:54:35.339Z,101385.00
2018-08-28T08:59:39.328Z,101381.00
2018-08-28T09:04:43.485Z,101386.00
2018-08-28T09:09:47.581Z,101383.00
2018-08-28T09:14:51.647Z,101381.00
2018-08-28T09:19:55.526Z,101373.00
2018-08-28T09:24:59.590Z,101369.00
2018-08-28T09:30:03.694Z,101370.00
2018-08-28T09:35:07.853Z,101373.00
2018-08-28T09:40:12.793Z,101366.00
2018-08-28T09:45:17.129Z,101369.00
2018-08-28T09:50:21.289Z,101363.00
2018-08-28T09:55:25.299Z,101361.00
2018-08-28T10:00:29.925Z,101356.00
2018-08-28T10:05:34.843Z,101352.00
2018-08-28T10:10:38.958Z,101358.00
2018-08-28T10:15:43.049Z,101348.00
2018-08-28T10:20:47.142Z,101353.00
2018-08-28T10:25:51.183Z,101353.00
2018-08-28T10:30:55.253Z,101342.00
2018-08-28T10:35:59.298Z,101346.00
2018-08-28T10:41:03.389Z,101330.00
2018-08-28T10:46:07.685Z,101332.00
2018-08-28T10:51:11.718Z,101321.00
2018-08-28T10:56:15.798Z,101322.00
2018-08-28T11:01:19.863Z,101308.00
2018-08-28T11:06:23.924Z,101322.00
2018-08-28T11:11:27.968Z,101302.00
2018-08-28T11:16:32.039Z,101303.00
2018-08-28T11:21:35.908Z,101293.00
2018-08-28T11:26:39.717Z,101277.00
2018-08-28T11:31:43.772Z,101271.00
2018-08-28T11:36:47.829Z,101277.00
2018-08-28T11:41:51.766Z,101274.00
2018-08-28T11:46:55.865Z,101265.00
2018-08-28T11:51:59.905Z,101271.00
2018-08-28T11:57:03.985Z,101257.00
2018-08-28T12:02:08.142Z,101253.00
2018-08-28T12:07:12.217Z,101261.00
2018-08-28T12:12:17.213Z,101247.00
2018-08-28T12:17:21.270Z,101239.00
2018-08-28T12:22:25.102Z,101235.00
2018-08-28T12:27:28.913Z,101230.00
2018-08-28T12:32:32.940Z,101222.00
2018-08-28T12:37:37.027Z,101223.00
2018-08-28T12:42:41.077Z,101208.00
2018-08-28T12:47:45.150Z,101210.00
2018-08-28T12:52:49.231Z,101193.00
2018-08-28T12:57:53.067Z,101194.00
2018-08-28T13:02:57.106Z,101180.00
2018-08-28T13:08:01.183Z,101170.00
2018-08-28T13:13:05.250Z,101168.00
2018-08-28T13:18:09.149Z,101161.00
2018-08-28T13:23:13.017Z,101156.00
2018-08-28T13:28:17.003Z,101149.00
2018-08-28T13:33:21.094Z,101145.00
2018-08-28T13:38:25.812Z,101142.00
2018-08-28T13:43:29.858Z,101145.00
2018-08-28T13:48:33.947Z,101140.00
2018-08-28T13:53:37.818Z,101134.00
2018-08-28T13:58:41.864Z,101126.00
2018-08-28T14:03:45.976Z,101123.00
2018-08-28T14:08:50.041Z,101118.00
2018-08-28T14:13:54.345Z,101106.00
2018-08-28T14:18:58.414Z,101112.00
2018-08-28T14:24:03.071Z,101100.00
2018-08-28T14:29:07.138Z,101104.00
2018-08-28T14:34:11.190Z,101111.00
2018-08-28T14:39:16.081Z,101101.00
2018-08-28T14:44:20.144Z,101087.00
2018-08-28T14:49:24.208Z,101072.00
2018-08-28T14:54:28.266Z,101068.00
2018-08-28T14:59:32.322Z,101073.00
2018-08-28T15:04:36.438Z,101066.00
2018-08-28T15:09:40.573Z,101062.00
2018-08-28T15:14:44.625Z,101052.00
2018-08-28T15:19:48.771Z,101051.00
2018-08-28T15:24:52.785Z,101039.00
2018-08-28T15:29:56.849Z,101040.00
2018-08-28T15:35:00.684Z,101043.00
2018-08-28T15:40:04.545Z,101030.00
2018-08-28T15:45:08.605Z,101038.00
2018-08-28T15:50:12.421Z,101036.00
2018-08-28T15:55:16.433Z,101037.00
2018-08-28T16:00:20.249Z,101026.00
2018-08-28T16:05:24.295Z,101025.00
2018-08-28T16:10:28.167Z,101020.00
2018-08-28T16:15:32.249Z,101018.00
2018-08-28T16:20:36.122Z,101020.00
2018-08-28T16:25:40.222Z,101008.00
2018-08-28T16:30:44.246Z,101011.00
2018-08-28T16:35:48.077Z,101004.00
2018-08-28T16:40:52.096Z,101000.00
2018-08-28T16:45:56.145Z,100992.00
2018-08-28T16:51:00.198Z,100987.00
2018-08-28T16:56:04.241Z,100975.00
2018-08-28T17:01:08.105Z,100973.00
2018-08-28T17:06:11.847Z,100966.00
2018-08-28T17:11:15.946Z,100965.00
2018-08-28T17:16:19.766Z,100963.00
2018-08-28T17:21:23.830Z,100958.00
2018-08-28T17:26:27.865Z,100953.00
2018-08-28T17:31:31.955Z,100952.00
2018-08-28T17:36:35.982Z,100951.00
2018-08-28T17:41:40.138Z,100948.00
2018-08-28T17:46:43.960Z,100944.00
2018-08-28T17:51:48.495Z,100945.00
2018-08-28T17:56:52.371Z,100948.00
2018-08-28T18:01:56.133Z,100946.00
2018-08-28T18:07:00.241Z,100947.00
2018-08-28T18:12:04.056Z,100954.00
2018-08-28T18:17:08.170Z,100955.00
2018-08-28T18:22:11.961Z,100954.00
2018-08-28T18:27:15.993Z,100951.00
2018-08-28T18:32:20.042Z,100950.00
2018-08-28T18:37:24.196Z,100950.00
2018-08-28T18:42:28.274Z,100952.00
2018-08-28T18:47:32.074Z,100945.00
2018-08-28T18:52:36.090Z,100951.00
2018-08-28T18:57:40.157Z,100948.00
2018-08-28T19:02:44.302Z,100953.00
2018-08-28T19:07:48.106Z,100950.00
2018-08-28T19:12:51.909Z,100948.00
2018-08-28T19:17:55.777Z,100953.00
2018-08-28T19:22:59.849Z,100952.00
2018-08-28T19:28:03.913Z,100951.00
2018-08-28T19:33:07.982Z,100942.00
2018-08-28T19:38:12.087Z,100948.00
2018-08-28T19:43:16.186Z,100948.00
2018-08-28T19:48:19.990Z,100951.00
2018-08-28T19:53:24.112Z,100956.00
2018-08-28T19:58:28.940Z,100956.00
2018-08-28T20:03:33.572Z,100946.00
2018-08-28T20:08:37.358Z,100947.00
2018-08-28T20:13:41.132Z,100947.00
2018-08-28T20:18:44.936Z,100941.00
2018-08-28T20:23:48.982Z,100936.00
2018-08-28T20:28:53.009Z,100939.00
2018-08-28T20:33:56.852Z,100939.00
2018-08-28T20:39:00.923Z,100937.00
2018-08-28T20:44:04.720Z,100930.00
2018-08-28T20:49:09.334Z,100922.00
2018-08-28T20:54:13.113Z,100924.00
2018-08-28T20:59:17.425Z,100918.00
2018-08-28T21:04:21.482Z,100908.00
2018-08-28T21:09:25.586Z,100901.00
2018-08-28T21:14:29.643Z,100899.00
2018-08-28T21:19:33.706Z,100903.00
2018-08-28T21:24:37.780Z,100898.00
2018-08-28T21:29:41.576Z,100893.00
2018-08-28T21:34:45.646Z,100895.00
2018-08-28T21:39:49.705Z,100893.00
2018-08-28T21:44:53.833Z,100891.00
2018-08-28T21:51:26.989Z,100887.00
2018-08-28T21:56:31.037Z,100881.00
2018-08-28T22:01:35.076Z,100880.00
2018-08-28T22:06:44.315Z,100876.00
2018-08-28T22:11:49.089Z,100868.00
2018-08-28T22:16:53.151Z,100866.00
2018-08-28T22:21:57.193Z,100874.00
2018-08-28T22:27:01.203Z,100879.00
2018-08-28T22:32:05.208Z,100873.00
2018-08-28T22:37:09.015Z,100875.00
2018-08-28T22:42:13.005Z,100879.00
2018-08-28T22:47:17.033Z,100870.00
2018-08-28T22:52:21.056Z,100869.00
2018-08-28T22:57:25.098Z,100864.00
2018-08-28T23:02:29.089Z,100861.00
2018-08-28T23:07:32.874Z,100857.00
2018-08-28T23:12:36.861Z,100855.00
2018-08-28T23:17:40.934Z,100853.00
2018-08-28T23:22:44.913Z,100851.00
2018-08-28T23:27:48.892Z,100850.00
2018-08-28T23:32:52.692Z,100841.00
2018-08-28T23:37:57.598Z,100834.00
2018-08-28T23:43:01.386Z,100831.00
2018-08-28T23:48:05.392Z,100829.00
2018-08-28T23:53:09.399Z,100831.00
2018-08-28T23:58:13.439Z,100818.00
